createdAt,value
2023-03-26T00:01:09.482Z,41.35
2023-03-26T00:03:36.834Z,41.44
2023-03-26T00:06:06.360Z,41.51
2023-03-26T00:08:33.431Z,41.17
2023-03-26T00:11:01.210Z,41.43
2023-03-26T00:13:28.404Z,41.41
2023-03-26T00:15:55.449Z,41.39
2023-03-26T00:18:22.347Z,41.33
2023-03-26T00:20:49.155Z,41.41
2023-03-26T00:23:17.559Z,41.19
2023-03-26T00:25:44.356Z,41.52
2023-03-26T00:28:11.427Z,41.33
2023-03-26T00:30:38.420Z,41.55
2023-03-26T00:33:05.420Z,41.40
2023-03-26T00:35:32.458Z,41.56
2023-03-26T00:37:59.476Z,41.40
2023-03-26T00:40:27.652Z,41.25
2023-03-26T00:42:54.465Z,41.33
2023-03-26T00:45:21.450Z,41.19
2023-03-26T00:47:48.315Z,41.13
2023-03-26T00:50:15.360Z,41.03
2023-03-26T00:52:42.750Z,41.19
2023-03-26T00:55:09.814Z,41.18
2023-03-26T00:57:38.231Z,41.22
2023-03-26T01:03:27.669Z,41.00
2023-03-26T01:05:57.791Z,40.89
2023-03-26T01:08:27.970Z,40.94
2023-03-26T01:10:56.405Z,41.35
2023-03-26T01:13:25.288Z,41.31
2023-03-26T01:15:52.633Z,41.29
2023-03-26T01:18:20.645Z,41.10
2023-03-26T01:20:49.383Z,41.19
2023-03-26T01:23:20.278Z,41.20
2023-03-26T01:25:50.721Z,41.17
2023-03-26T01:28:18.069Z,41.02
2023-03-26T01:30:50.467Z,40.92
2023-03-26T01:33:19.071Z,41.05
2023-03-26T01:35:49.657Z,40.73
2023-03-26T01:38:23.463Z,40.90
2023-03-26T01:40:54.861Z,40.83
2023-03-26T01:43:27.772Z,40.85
2023-03-26T01:45:56.581Z,40.83
2023-03-26T01:48:28.598Z,40.85
2023-03-26T01:50:55.410Z,41.00
2023-03-26T01:53:22.212Z,40.95
2023-03-26T01:55:54.805Z,40.62
2023-03-26T01:58:27.428Z,41.01
2023-03-26T02:00:56.872Z,40.93
2023-03-26T02:03:27.438Z,41.10
2023-03-26T02:05:57.299Z,41.04
2023-03-26T02:08:27.596Z,40.99
2023-03-26T02:10:56.714Z,41.07
2023-03-26T02:13:24.227Z,41.06
2023-03-26T02:15:54.843Z,40.96
2023-03-26T02:18:21.759Z,40.90
2023-03-26T02:20:48.611Z,40.94
2023-03-26T02:23:15.422Z,40.83
2023-03-26T02:25:42.242Z,40.97
2023-03-26T02:28:10.413Z,40.69
2023-03-26T02:30:37.223Z,40.86
2023-03-26T02:33:04.084Z,40.61
2023-03-26T02:35:31.018Z,40.83
2023-03-26T02:37:58.036Z,40.67
2023-03-26T02:40:24.842Z,40.73
2023-03-26T02:42:51.719Z,40.73
2023-03-26T02:45:19.890Z,40.61
2023-03-26T02:47:46.743Z,40.73
2023-03-26T02:50:13.650Z,40.84
2023-03-26T02:52:40.488Z,41.15
2023-03-26T02:55:07.675Z,40.88
2023-03-26T02:57:34.537Z,40.95
2023-03-26T03:00:01.660Z,40.89
2023-03-26T03:02:29.937Z,40.96
2023-03-26T03:04:56.864Z,40.73
2023-03-26T03:07:23.685Z,40.78
2023-03-26T03:09:50.477Z,40.56
2023-03-26T03:12:17.382Z,40.67
2023-03-26T03:14:44.178Z,40.70
2023-03-26T03:17:10.992Z,40.74
2023-03-26T03:19:39.190Z,40.65
2023-03-26T03:22:05.996Z,40.58
2023-03-26T03:24:32.810Z,40.79
2023-03-26T03:26:59.661Z,40.71
2023-03-26T03:29:26.494Z,40.67
2023-03-26T03:31:53.328Z,40.63
2023-03-26T03:34:20.163Z,40.77
2023-03-26T03:36:48.364Z,40.95
2023-03-26T03:39:15.410Z,40.76
2023-03-26T03:41:42.262Z,40.82
2023-03-26T03:44:09.272Z,40.09
2023-03-26T03:46:36.327Z,39.86
2023-03-26T03:49:03.481Z,39.35
2023-03-26T03:51:30.285Z,39.36
2023-03-26T03:53:58.457Z,39.26
2023-03-26T03:56:25.854Z,39.20
2023-03-26T03:58:52.705Z,39.34
2023-03-26T04:01:19.515Z,39.19
2023-03-26T04:03:46.849Z,39.24
2023-03-26T04:06:13.829Z,39.33
2023-03-26T04:08:40.610Z,39.67
2023-03-26T04:11:08.811Z,39.59
2023-03-26T04:13:35.620Z,39.77
2023-03-26T04:16:02.829Z,39.68
2023-03-26T04:18:29.798Z,40.05
2023-03-26T04:20:56.651Z,39.85
2023-03-26T04:23:23.625Z,40.12
2023-03-26T04:25:51.706Z,40.15
2023-03-26T04:28:25.744Z,40.42
2023-03-26T04:30:52.692Z,40.52
2023-03-26T04:33:19.562Z,40.37
2023-03-26T04:35:46.607Z,40.31
2023-03-26T04:38:14.446Z,40.45
2023-03-26T04:40:41.237Z,40.48
2023-03-26T04:43:08.867Z,40.18
2023-03-26T04:45:37.045Z,40.13
2023-03-26T04:48:03.882Z,40.24
2023-03-26T04:50:30.696Z,40.30
2023-03-26T04:52:57.576Z,40.31
2023-03-26T04:55:27.091Z,40.31
2023-03-26T04:57:55.655Z,40.19
2023-03-26T05:00:22.607Z,40.25
2023-03-26T05:02:50.887Z,40.49
2023-03-26T05:05:18.000Z,40.42
2023-03-26T05:07:44.912Z,40.38
2023-03-26T05:10:13.256Z,40.57
2023-03-26T05:12:40.225Z,40.48
2023-03-26T05:15:07.917Z,40.39
2023-03-26T05:17:34.863Z,40.98
2023-03-26T05:20:03.654Z,40.49
2023-03-26T05:22:30.549Z,41.10
2023-03-26T05:24:57.370Z,38.04
2023-03-26T05:27:24.165Z,36.63
2023-03-26T05:29:50.996Z,36.12
2023-03-26T05:32:17.804Z,36.44
2023-03-26T05:34:44.617Z,36.35
2023-03-26T05:37:12.858Z,36.25
2023-03-26T05:39:39.665Z,36.54
2023-03-26T05:42:06.486Z,36.35
2023-03-26T05:44:33.330Z,37.25
2023-03-26T05:47:00.139Z,37.17
2023-03-26T05:49:26.948Z,37.17
2023-03-26T05:51:55.447Z,37.19
2023-03-26T05:54:23.792Z,37.27
2023-03-26T05:56:50.601Z,37.50
2023-03-26T05:59:17.477Z,37.98
2023-03-26T06:01:44.282Z,38.08
2023-03-26T06:04:11.903Z,38.44
2023-03-26T06:06:40.667Z,38.42
2023-03-26T06:09:07.474Z,38.73
2023-03-26T06:11:35.685Z,38.97
2023-03-26T06:14:02.744Z,39.03
2023-03-26T06:16:29.636Z,39.10
2023-03-26T06:18:57.512Z,39.39
2023-03-26T06:21:24.792Z,39.26
2023-03-26T06:23:51.685Z,39.10
2023-03-26T06:26:18.981Z,39.44
2023-03-26T06:28:47.325Z,39.20
2023-03-26T06:31:14.246Z,39.39
2023-03-26T06:33:41.076Z,39.63
2023-03-26T06:36:08.343Z,39.45
2023-03-26T06:38:35.339Z,39.60
2023-03-26T06:41:02.551Z,39.73
2023-03-26T06:43:29.381Z,39.80
2023-03-26T06:45:57.580Z,39.94
2023-03-26T06:48:24.371Z,39.91
2023-03-26T06:50:51.314Z,40.13
2023-03-26T06:53:18.236Z,39.88
2023-03-26T06:55:45.041Z,39.97
2023-03-26T06:58:12.394Z,40.10
2023-03-26T07:00:39.329Z,40.30
2023-03-26T07:03:07.526Z,40.27
2023-03-26T07:05:34.359Z,40.08
2023-03-26T07:08:01.156Z,39.96
2023-03-26T07:10:27.952Z,39.88
2023-03-26T07:12:54.803Z,39.91
2023-03-26T07:15:21.638Z,39.91
2023-03-26T07:17:48.517Z,39.94
2023-03-26T07:20:16.827Z,40.17
2023-03-26T07:22:43.929Z,40.04
2023-03-26T07:25:12.069Z,40.07
2023-03-26T07:27:44.468Z,40.06
2023-03-26T07:30:14.468Z,40.10
2023-03-26T07:32:45.786Z,40.29
2023-03-26T07:35:16.062Z,40.39
2023-03-26T07:37:50.301Z,40.42
2023-03-26T07:40:20.432Z,40.53
2023-03-26T07:42:54.166Z,40.63
2023-03-26T07:45:24.555Z,40.66
2023-03-26T07:47:51.701Z,40.53
2023-03-26T07:50:20.568Z,40.63
2023-03-26T07:52:49.119Z,40.21
2023-03-26T07:55:16.835Z,40.46
2023-03-26T07:57:47.718Z,40.23
2023-03-26T08:00:17.270Z,40.53
2023-03-26T08:03:02.458Z,40.74
2023-03-26T08:05:32.660Z,40.45
2023-03-26T08:08:05.472Z,40.63
2023-03-26T08:10:34.965Z,40.85
2023-03-26T08:13:08.608Z,40.71
2023-03-26T08:15:38.046Z,40.67
2023-03-26T08:18:15.046Z,40.69
2023-03-26T08:20:45.375Z,40.81
2023-03-26T08:23:17.088Z,40.69
2023-03-26T08:25:49.553Z,40.61
2023-03-26T08:28:22.147Z,40.81
2023-03-26T08:30:49.200Z,40.82
2023-03-26T08:33:18.228Z,40.36
2023-03-26T08:35:45.721Z,40.55
2023-03-26T08:38:13.420Z,40.36
2023-03-26T08:41:11.400Z,40.01
2023-03-26T08:43:58.706Z,40.06
2023-03-26T08:46:41.087Z,40.10
2023-03-26T08:49:29.785Z,40.42
2023-03-26T08:52:08.695Z,40.42
2023-03-26T08:54:46.824Z,40.54
2023-03-26T08:57:29.777Z,42.43
2023-03-26T09:00:10.450Z,55.46
2023-03-26T09:02:50.650Z,51.80
2023-03-26T09:05:24.261Z,43.47
2023-03-26T09:08:03.914Z,43.48
2023-03-26T09:10:46.238Z,42.45
2023-03-26T09:13:27.961Z,42.10
2023-03-26T09:16:07.116Z,42.02
2023-03-26T09:18:52.757Z,42.10
2023-03-26T09:21:31.957Z,41.71
2023-03-26T09:24:29.045Z,41.60
2023-03-26T09:27:00.014Z,41.50
2023-03-26T09:29:57.037Z,41.31
2023-03-26T09:32:50.987Z,41.01
2023-03-26T09:35:30.825Z,41.27
2023-03-26T09:37:58.946Z,41.41
2023-03-26T09:40:32.933Z,41.95
2023-03-26T09:43:08.194Z,41.99
2023-03-26T09:45:42.521Z,42.40
2023-03-26T09:48:24.249Z,42.56
2023-03-26T09:50:58.757Z,42.11
2023-03-26T09:53:40.541Z,41.95
2023-03-26T09:56:15.566Z,41.83
2023-03-26T09:58:51.495Z,42.24
2023-03-26T10:01:20.545Z,42.05
2023-03-26T10:03:51.967Z,42.09
2023-03-26T10:06:34.925Z,42.23
2023-03-26T10:09:06.985Z,42.19
2023-03-26T10:11:48.692Z,41.66
2023-03-26T10:14:20.817Z,41.47
2023-03-26T10:16:56.011Z,41.42
2023-03-26T10:19:45.477Z,41.24
2023-03-26T10:22:22.856Z,41.05
2023-03-26T10:25:11.936Z,41.12
2023-03-26T10:27:43.567Z,40.88
2023-03-26T10:30:28.070Z,41.10
2023-03-26T10:33:00.470Z,41.66
2023-03-26T10:35:36.597Z,42.39
2023-03-26T10:38:12.780Z,41.25
2023-03-26T10:40:44.305Z,43.43
2023-03-26T10:43:26.067Z,48.04
2023-03-26T10:46:02.994Z,39.98
2023-03-26T10:48:53.878Z,38.21
2023-03-26T10:51:27.354Z,37.94
2023-03-26T10:53:58.317Z,38.00
2023-03-26T10:56:27.374Z,38.97
2023-03-26T10:58:54.562Z,36.95
2023-03-26T11:01:24.759Z,36.60
2023-03-26T11:03:52.434Z,36.87
2023-03-26T11:06:26.195Z,37.46
2023-03-26T11:08:57.899Z,39.31
2023-03-26T11:11:29.742Z,39.54
2023-03-26T11:14:00.756Z,39.87
2023-03-26T11:16:32.003Z,40.46
2023-03-26T11:19:03.848Z,57.84
2023-03-26T11:21:34.308Z,40.05
2023-03-26T11:24:15.987Z,38.88
2023-03-26T11:26:51.049Z,38.09
2023-03-26T11:29:31.107Z,37.65
2023-03-26T11:32:02.955Z,37.80
2023-03-26T11:34:33.037Z,38.40
2023-03-26T11:37:01.465Z,38.39
2023-03-26T11:39:29.784Z,38.70
2023-03-26T11:42:05.182Z,38.47
2023-03-26T11:44:34.471Z,38.58
2023-03-26T11:47:03.871Z,38.68
2023-03-26T11:49:30.719Z,38.38
2023-03-26T11:51:57.563Z,38.14
2023-03-26T11:54:24.374Z,38.00
2023-03-26T11:57:04.793Z,37.87
2023-03-26T11:59:49.067Z,37.83
2023-03-26T12:02:27.520Z,38.00
2023-03-26T12:05:08.058Z,38.13
2023-03-26T12:07:34.935Z,38.34
2023-03-26T12:10:17.954Z,38.37
2023-03-26T12:12:46.911Z,38.34
2023-03-26T12:15:15.861Z,38.44
2023-03-26T12:17:42.812Z,38.28
2023-03-26T12:20:27.000Z,38.29
2023-03-26T12:22:54.817Z,38.14
2023-03-26T12:25:22.434Z,38.40
2023-03-26T12:27:50.206Z,38.33
2023-03-26T12:30:22.777Z,38.11
2023-03-26T12:32:53.171Z,38.26
2023-03-26T12:35:23.866Z,38.41
2023-03-26T12:37:50.998Z,38.25
2023-03-26T12:40:28.293Z,38.38
2023-03-26T12:44:53.665Z,38.25
2023-03-26T12:45:44.369Z,38.23
2023-03-26T12:48:12.942Z,38.67
2023-03-26T12:50:44.379Z,38.35
2023-03-26T12:53:34.997Z,38.70
2023-03-26T12:56:07.227Z,38.59
2023-03-26T12:58:47.511Z,38.86
2023-03-26T13:01:23.125Z,38.89
2023-03-26T13:04:02.481Z,38.92
2023-03-26T13:06:59.909Z,38.98
2023-03-26T13:09:37.939Z,39.17
2023-03-26T13:12:12.153Z,39.49
2023-03-26T13:14:47.558Z,39.28
2023-03-26T13:17:21.292Z,39.46
2023-03-26T13:19:52.838Z,39.47
2023-03-26T13:22:23.839Z,39.77
2023-03-26T13:24:55.075Z,39.54
2023-03-26T13:27:36.696Z,39.70
2023-03-26T13:30:07.442Z,39.69
2023-03-26T13:32:45.931Z,39.56
2023-03-26T13:35:19.091Z,39.99
2023-03-26T13:37:50.045Z,40.84
2023-03-26T13:40:21.474Z,42.47
2023-03-26T13:42:51.960Z,41.30
2023-03-26T13:45:28.129Z,40.88
2023-03-26T13:47:58.125Z,41.14
2023-03-26T13:50:26.672Z,40.96
2023-03-26T13:52:55.739Z,40.85
2023-03-26T13:55:25.581Z,40.42
2023-03-26T13:57:56.431Z,40.24
2023-03-26T14:00:25.615Z,40.29
2023-03-26T14:02:55.087Z,40.28
2023-03-26T14:05:26.004Z,40.61
2023-03-26T14:07:55.600Z,40.45
2023-03-26T14:10:24.763Z,40.44
2023-03-26T14:12:56.649Z,40.15
2023-03-26T14:15:26.555Z,40.13
2023-03-26T14:17:55.398Z,40.71
2023-03-26T14:20:42.790Z,39.96
2023-03-26T14:23:30.832Z,39.00
2023-03-26T14:26:06.494Z,37.53
2023-03-26T14:28:57.330Z,38.45
2023-03-26T14:31:29.074Z,38.24
2023-03-26T14:34:03.473Z,38.39
2023-03-26T14:36:50.965Z,38.36
2023-03-26T14:39:27.635Z,37.96
2023-03-26T14:41:58.903Z,38.25
2023-03-26T14:44:48.934Z,39.58
2023-03-26T14:47:17.308Z,38.94
2023-03-26T14:50:02.126Z,38.39
2023-03-26T14:52:37.243Z,38.60
2023-03-26T14:55:11.038Z,38.28
2023-03-26T14:57:58.877Z,38.42
2023-03-26T15:00:34.583Z,38.48
2023-03-26T15:03:28.235Z,38.39
2023-03-26T15:06:15.463Z,38.41
2023-03-26T15:09:01.009Z,38.30
2023-03-26T15:11:31.686Z,38.32
2023-03-26T15:14:18.224Z,38.29
2023-03-26T15:17:04.220Z,38.41
2023-03-26T15:19:48.961Z,38.23
2023-03-26T15:22:36.603Z,38.36
2023-03-26T15:25:30.441Z,38.22
2023-03-26T15:28:07.934Z,38.57
2023-03-26T15:30:53.741Z,38.58
2023-03-26T15:33:43.477Z,38.79
2023-03-26T15:36:25.192Z,38.67
2023-03-26T15:39:03.616Z,38.95
2023-03-26T15:41:38.541Z,38.80
2023-03-26T15:44:26.790Z,38.67
2023-03-26T15:47:01.979Z,38.89
2023-03-26T15:49:35.381Z,39.00
2023-03-26T15:52:07.943Z,38.87
2023-03-26T15:54:39.506Z,39.03
2023-03-26T15:57:13.969Z,38.85
2023-03-26T15:59:47.416Z,38.98
2023-03-26T16:02:21.024Z,38.85
2023-03-26T16:04:51.649Z,39.09
2023-03-26T16:07:31.458Z,39.05
2023-03-26T16:10:09.806Z,39.20
2023-03-26T16:12:44.945Z,39.14
2023-03-26T16:15:29.577Z,39.00
2023-03-26T16:18:24.941Z,39.21
2023-03-26T16:20:53.116Z,39.32
2023-03-26T16:23:24.580Z,39.03
2023-03-26T16:25:56.830Z,39.11
2023-03-26T16:28:28.481Z,38.90
2023-03-26T16:31:23.503Z,38.95
2023-03-26T16:34:21.113Z,38.86
2023-03-26T16:36:48.572Z,38.99
2023-03-26T16:39:19.734Z,38.89
2023-03-26T16:41:55.054Z,39.03
2023-03-26T16:44:26.857Z,38.92
2023-03-26T16:46:57.580Z,39.23
2023-03-26T16:49:34.929Z,39.32
2023-03-26T16:52:04.089Z,39.02
2023-03-26T16:54:38.588Z,38.77
2023-03-26T16:57:10.693Z,38.96
2023-03-26T17:00:06.265Z,38.85
2023-03-26T17:02:47.706Z,38.84
2023-03-26T17:05:18.485Z,38.79
2023-03-26T17:07:49.907Z,38.91
2023-03-26T17:10:21.809Z,38.70
2023-03-26T17:12:53.286Z,38.86
2023-03-26T17:15:27.077Z,38.73
2023-03-26T17:18:03.067Z,38.74
2023-03-26T17:20:35.553Z,38.72
2023-03-26T17:23:09.341Z,38.84
2023-03-26T17:25:37.396Z,38.87
2023-03-26T17:28:21.921Z,38.76
2023-03-26T17:30:54.161Z,39.08
2023-03-26T17:33:27.578Z,39.11
2023-03-26T17:36:09.270Z,39.13
2023-03-26T17:38:58.626Z,39.07
2023-03-26T17:41:55.600Z,39.14
2023-03-26T17:44:35.986Z,39.30
2023-03-26T17:47:04.676Z,39.23
2023-03-26T17:49:33.336Z,39.17
2023-03-26T17:52:03.519Z,39.27
2023-03-26T17:54:32.775Z,39.27
2023-03-26T17:57:02.094Z,39.06
2023-03-26T17:59:29.093Z,38.98
2023-03-26T18:01:57.416Z,39.00
2023-03-26T18:04:32.746Z,38.91
2023-03-26T18:07:23.373Z,38.78
2023-03-26T18:09:58.377Z,38.88
2023-03-26T18:12:40.424Z,39.19
2023-03-26T18:15:14.635Z,39.52
2023-03-26T18:17:43.226Z,39.16
2023-03-26T18:20:18.573Z,39.31
2023-03-26T18:22:45.607Z,39.24
2023-03-26T18:25:20.937Z,39.25
2023-03-26T18:27:48.432Z,39.44
2023-03-26T18:30:16.422Z,39.50
2023-03-26T18:32:47.632Z,39.44
2023-03-26T18:35:16.142Z,39.48
2023-03-26T18:37:43.712Z,39.56
2023-03-26T18:40:13.536Z,39.68
2023-03-26T18:42:43.881Z,39.56
2023-03-26T18:45:18.641Z,39.43
2023-03-26T18:47:45.638Z,39.74
2023-03-26T18:50:15.405Z,39.31
2023-03-26T18:52:42.482Z,39.64
2023-03-26T18:55:11.033Z,39.51
2023-03-26T18:57:37.829Z,39.61
2023-03-26T19:00:11.389Z,39.45
2023-03-26T19:02:38.426Z,39.44
2023-03-26T19:05:06.271Z,39.29
2023-03-26T19:07:33.250Z,39.46
2023-03-26T19:10:00.333Z,39.47
2023-03-26T19:12:28.451Z,39.58
2023-03-26T19:14:56.880Z,39.61
2023-03-26T19:17:27.506Z,39.47
2023-03-26T19:19:55.222Z,39.64
2023-03-26T19:22:25.134Z,39.70
2023-03-26T19:24:55.432Z,39.67
2023-03-26T19:27:22.371Z,39.74
2023-03-26T19:29:49.253Z,39.58
2023-03-26T19:32:17.652Z,39.58
2023-03-26T19:34:46.537Z,39.61
2023-03-26T19:37:17.875Z,39.41
2023-03-26T19:39:46.927Z,39.43
2023-03-26T19:42:15.568Z,39.40
2023-03-26T19:44:42.651Z,39.47
2023-03-26T19:47:16.251Z,39.68
2023-03-26T19:49:50.084Z,39.53
2023-03-26T19:52:21.219Z,39.51
2023-03-26T19:54:59.129Z,39.61
2023-03-26T19:57:27.584Z,39.79
2023-03-26T19:59:54.943Z,39.79
2023-03-26T20:02:21.980Z,39.70
2023-03-26T20:04:50.264Z,39.87
2023-03-26T20:07:18.129Z,39.83
2023-03-26T20:09:44.938Z,39.89
2023-03-26T20:12:11.805Z,39.92
2023-03-26T20:14:38.819Z,39.81
2023-03-26T20:17:10.340Z,39.62
2023-03-26T20:19:37.133Z,39.58
2023-03-26T20:22:06.271Z,39.59
2023-03-26T20:24:34.147Z,39.61
2023-03-26T20:27:00.936Z,39.78
2023-03-26T20:29:27.793Z,39.52
2023-03-26T20:31:54.904Z,39.71
2023-03-26T20:34:22.999Z,39.77
2023-03-26T20:36:50.356Z,39.75
2023-03-26T20:39:18.695Z,39.69
2023-03-26T20:41:46.538Z,39.71
2023-03-26T20:44:14.450Z,39.82
2023-03-26T20:46:41.347Z,39.96
2023-03-26T20:49:08.294Z,39.79
2023-03-26T20:51:35.165Z,40.07
2023-03-26T20:54:01.969Z,39.84
2023-03-26T20:56:30.138Z,39.88
2023-03-26T20:59:09.943Z,39.94
2023-03-26T21:01:37.646Z,40.05
2023-03-26T21:04:04.579Z,39.79
2023-03-26T21:06:31.493Z,39.63
2023-03-26T21:08:58.794Z,39.86
2023-03-26T21:11:29.219Z,39.65
2023-03-26T21:14:00.172Z,39.79
2023-03-26T21:16:27.315Z,39.81
2023-03-26T21:18:54.577Z,39.77
2023-03-26T21:21:25.693Z,39.93
2023-03-26T21:23:55.034Z,39.89
2023-03-26T21:26:26.328Z,39.74
2023-03-26T21:28:53.247Z,39.94
2023-03-26T21:31:22.398Z,39.89
2023-03-26T21:33:50.088Z,40.09
2023-03-26T21:36:18.028Z,40.05
2023-03-26T21:38:45.615Z,40.13
2023-03-26T21:41:16.171Z,39.90
2023-03-26T21:43:43.013Z,39.82
2023-03-26T21:46:10.635Z,40.42
2023-03-26T21:48:39.085Z,40.27
2023-03-26T21:51:06.450Z,40.06
2023-03-26T21:53:34.532Z,39.77
2023-03-26T21:56:10.414Z,39.69
2023-03-26T21:58:43.224Z,39.74
2023-03-26T22:01:15.716Z,39.83
2023-03-26T22:03:50.606Z,39.70
2023-03-26T22:06:20.841Z,39.50
2023-03-26T22:08:47.890Z,39.79
2023-03-26T22:11:14.739Z,39.69
2023-03-26T22:13:41.541Z,39.58
2023-03-26T22:16:09.378Z,39.86
2023-03-26T22:18:36.558Z,39.76
2023-03-26T22:21:05.281Z,39.76
2023-03-26T22:23:32.074Z,39.68
2023-03-26T22:25:58.976Z,40.01
2023-03-26T22:28:25.825Z,39.84
2023-03-26T22:30:52.685Z,39.94
2023-03-26T22:33:19.531Z,39.62
2023-03-26T22:35:46.360Z,39.79
2023-03-26T22:38:14.686Z,40.00
2023-03-26T22:40:41.515Z,39.68
2023-03-26T22:43:08.437Z,39.78
2023-03-26T22:45:35.227Z,39.68
2023-03-26T22:48:03.483Z,39.54
2023-03-26T22:50:31.382Z,39.67
2023-03-26T22:52:58.180Z,39.71
2023-03-26T22:55:28.369Z,39.72
2023-03-26T22:57:56.488Z,39.73
2023-03-26T23:00:23.309Z,39.52
2023-03-26T23:02:50.235Z,39.67
2023-03-26T23:05:17.166Z,39.73
2023-03-26T23:07:44.307Z,39.65
2023-03-26T23:10:11.745Z,39.74
2023-03-26T23:12:40.396Z,39.95
2023-03-26T23:15:07.729Z,39.89
2023-03-26T23:17:35.534Z,40.06
2023-03-26T23:20:03.302Z,39.88
2023-03-26T23:22:30.103Z,39.96
2023-03-26T23:24:56.946Z,39.93
2023-03-26T23:27:23.779Z,39.83
2023-03-26T23:29:51.940Z,39.67
2023-03-26T23:32:23.415Z,39.54
2023-03-26T23:34:51.768Z,39.60
2023-03-26T23:37:19.356Z,39.71
2023-03-26T23:39:46.147Z,39.77
2023-03-26T23:42:12.998Z,39.51
2023-03-26T23:44:39.855Z,39.46
2023-03-26T23:47:08.109Z,39.62
2023-03-26T23:49:35.046Z,39.62
2023-03-26T23:52:01.898Z,39.50
2023-03-26T23:54:28.693Z,39.63
2023-03-26T23:56:55.509Z,39.63
2023-03-26T23:59:22.379Z,39.74
